sensor_id;sensor_type;location;lat;lon;timestamp;pressure;altitude;pressure_sealevel;temperature;humidity
85524;BME280;75932;48.616;9.270;2024-03-02T00:00:07;97298.50;;;2.81;94.63
85524;BME280;75932;48.616;9.270;2024-03-02T00:02:43;97308.50;;;2.86;94.75
85524;BME280;75932;48.616;9.270;2024-03-02T00:05:11;97318.47;;;2.91;95.72
85524;BME280;75932;48.616;9.270;2024-03-02T00:07:36;97315.72;;;2.91;95.54
85524;BME280;75932;48.616;9.270;2024-03-02T00:10:08;97315.94;;;2.98;95.80
85524;BME280;75932;48.616;9.270;2024-03-02T00:12:35;97300.59;;;2.84;95.50
85524;BME280;75932;48.616;9.270;2024-03-02T00:15:01;97316.09;;;3.01;94.73
85524;BME280;75932;48.616;9.270;2024-03-02T00:17:29;97314.94;;;3.02;95.22
85524;BME280;75932;48.616;9.270;2024-03-02T00:19:54;97314.72;;;3.08;95.83
85524;BME280;75932;48.616;9.270;2024-03-02T00:22:19;97318.38;;;2.99;94.66
85524;BME280;75932;48.616;9.270;2024-03-02T00:24:45;97327.53;;;3.03;94.93
85524;BME280;75932;48.616;9.270;2024-03-02T00:27:12;97322.81;;;2.92;94.57
85524;BME280;75932;48.616;9.270;2024-03-02T00:29:40;97326.81;;;2.94;95.00
85524;BME280;75932;48.616;9.270;2024-03-02T00:32:12;97329.56;;;2.94;95.12
85524;BME280;75932;48.616;9.270;2024-03-02T00:34:39;97327.97;;;2.93;94.87
85524;BME280;75932;48.616;9.270;2024-03-02T00:37:05;97316.84;;;2.90;94.65
85524;BME280;75932;48.616;9.270;2024-03-02T00:39:30;97334.41;;;2.97;94.88
85524;BME280;75932;48.616;9.270;2024-03-02T00:41:55;97294.13;;;2.68;94.56
85524;BME280;75932;48.616;9.270;2024-03-02T00:44:23;97340.03;;;3.01;94.47
85524;BME280;75932;48.616;9.270;2024-03-02T00:46:50;97336.34;;;2.97;94.89
85524;BME280;75932;48.616;9.270;2024-03-02T00:49:22;97336.53;;;2.92;93.89
85524;BME280;75932;48.616;9.270;2024-03-02T00:51:48;97340.44;;;2.91;94.32
85524;BME280;75932;48.616;9.270;2024-03-02T00:54:15;97352.09;;;2.88;94.74
85524;BME280;75932;48.616;9.270;2024-03-02T00:56:41;97343.53;;;2.89;94.54
85524;BME280;75932;48.616;9.270;2024-03-02T00:59:07;97295.28;;;2.67;94.48
85524;BME280;75932;48.616;9.270;2024-03-02T01:01:34;97324.97;;;2.86;94.85
85524;BME280;75932;48.616;9.270;2024-03-02T01:03:59;97331.13;;;2.83;94.82
85524;BME280;75932;48.616;9.270;2024-03-02T01:06:24;97283.00;;;2.52;94.22
85524;BME280;75932;48.616;9.270;2024-03-02T01:08:50;97331.59;;;2.85;93.96
85524;BME280;75932;48.616;9.270;2024-03-02T01:11:16;97309.59;;;2.73;94.46
85524;BME280;75932;48.616;9.270;2024-03-02T01:13:42;97271.31;;;2.55;94.13
85524;BME280;75932;48.616;9.270;2024-03-02T01:16:08;97327.94;;;2.81;93.85
85524;BME280;75932;48.616;9.270;2024-03-02T01:18:33;97313.25;;;2.77;94.22
85524;BME280;75932;48.616;9.270;2024-03-02T01:20:58;97302.84;;;2.70;94.75
85524;BME280;75932;48.616;9.270;2024-03-02T01:23:24;97320.94;;;2.83;94.82
85524;BME280;75932;48.616;9.270;2024-03-02T01:25:50;97326.81;;;2.82;95.11
85524;BME280;75932;48.616;9.270;2024-03-02T01:28:17;97322.91;;;2.83;95.23
85524;BME280;75932;48.616;9.270;2024-03-02T01:30:44;97331.13;;;2.83;94.85
85524;BME280;75932;48.616;9.270;2024-03-02T01:33:10;97323.22;;;2.81;94.34
85524;BME280;75932;48.616;9.270;2024-03-02T01:35:36;97318.88;;;2.80;94.13
85524;BME280;75932;48.616;9.270;2024-03-02T01:38:02;97319.56;;;2.77;94.74
85524;BME280;75932;48.616;9.270;2024-03-02T01:40:28;97317.81;;;2.73;94.96
85524;BME280;75932;48.616;9.270;2024-03-02T01:42:53;97322.19;;;2.74;93.83
85524;BME280;75932;48.616;9.270;2024-03-02T01:45:19;97320.78;;;2.68;94.07
85524;BME280;75932;48.616;9.270;2024-03-02T01:47:45;97323.88;;;2.66;94.06
85524;BME280;75932;48.616;9.270;2024-03-02T01:50:11;97320.19;;;2.62;94.17
85524;BME280;75932;48.616;9.270;2024-03-02T01:52:39;97314.69;;;2.62;94.63
85524;BME280;75932;48.616;9.270;2024-03-02T01:55:07;97312.19;;;2.57;94.46
85524;BME280;75932;48.616;9.270;2024-03-02T01:57:33;97319.81;;;2.51;94.68
85524;BME280;75932;48.616;9.270;2024-03-02T01:59:58;97296.06;;;2.34;93.68
85524;BME280;75932;48.616;9.270;2024-03-02T02:02:24;97299.88;;;2.42;94.88
85524;BME280;75932;48.616;9.270;2024-03-02T02:04:49;97281.41;;;2.30;94.40
85524;BME280;75932;48.616;9.270;2024-03-02T02:07:15;97314.72;;;2.41;94.81
85524;BME280;75932;48.616;9.270;2024-03-02T02:09:43;97309.22;;;2.29;95.12
85524;BME280;75932;48.616;9.270;2024-03-02T02:12:11;97311.75;;;2.34;94.44
85524;BME280;75932;48.616;9.270;2024-03-02T02:14:37;97311.50;;;2.27;94.04
85524;BME280;75932;48.616;9.270;2024-03-02T02:17:05;97300.84;;;2.25;94.42
85524;BME280;75932;48.616;9.270;2024-03-02T02:19:30;97296.53;;;2.15;94.14
85524;BME280;75932;48.616;9.270;2024-03-02T02:21:55;97302.03;;;2.15;94.62
85524;BME280;75932;48.616;9.270;2024-03-02T02:24:21;97295.81;;;2.06;94.92
85524;BME280;75932;48.616;9.270;2024-03-02T02:26:46;97308.91;;;2.09;93.90
85524;BME280;75932;48.616;9.270;2024-03-02T02:29:11;97302.47;;;2.05;93.93
85524;BME280;75932;48.616;9.270;2024-03-02T02:31:40;97307.66;;;1.98;94.36
85524;BME280;75932;48.616;9.270;2024-03-02T02:34:06;97312.88;;;1.91;94.62
85524;BME280;75932;48.616;9.270;2024-03-02T02:36:33;97326.94;;;1.89;95.50
85524;BME280;75932;48.616;9.270;2024-03-02T02:39:03;97307.66;;;1.77;94.84
85524;BME280;75932;48.616;9.270;2024-03-02T02:41:30;97298.78;;;1.80;94.72
85524;BME280;75932;48.616;9.270;2024-03-02T02:43:55;97292.59;;;1.83;94.94
85524;BME280;75932;48.616;9.270;2024-03-02T02:46:21;97291.66;;;1.79;95.06
85524;BME280;75932;48.616;9.270;2024-03-02T02:48:46;97294.75;;;1.77;95.51
85524;BME280;75932;48.616;9.270;2024-03-02T02:51:12;97291.72;;;1.70;95.37
85524;BME280;75932;48.616;9.270;2024-03-02T02:53:39;97261.03;;;1.56;94.82
85524;BME280;75932;48.616;9.270;2024-03-02T02:56:06;97291.25;;;1.68;95.26
85524;BME280;75932;48.616;9.270;2024-03-02T02:58:31;97291.25;;;1.68;94.67
85524;BME280;75932;48.616;9.270;2024-03-02T03:00:57;97288.97;;;1.70;94.40
85524;BME280;75932;48.616;9.270;2024-03-02T03:03:22;97285.75;;;1.68;94.46
85524;BME280;75932;48.616;9.270;2024-03-02T03:05:48;97293.00;;;1.73;94.72
85524;BME280;75932;48.616;9.270;2024-03-02T03:08:13;97294.47;;;1.70;94.31
85524;BME280;75932;48.616;9.270;2024-03-02T03:10:39;97276.00;;;1.58;94.27
85524;BME280;75932;48.616;9.270;2024-03-02T03:13:05;97277.13;;;1.57;93.91
85524;BME280;75932;48.616;9.270;2024-03-02T03:15:34;97290.66;;;1.62;94.45
85524;BME280;75932;48.616;9.270;2024-03-02T03:17:59;97281.03;;;1.56;94.59
85524;BME280;75932;48.616;9.270;2024-03-02T03:20:25;97271.28;;;1.38;93.42
85524;BME280;75932;48.616;9.270;2024-03-02T03:22:50;97278.25;;;1.35;94.08
85524;BME280;75932;48.616;9.270;2024-03-02T03:25:15;97291.63;;;1.37;93.53
85524;BME280;75932;48.616;9.270;2024-03-02T03:27:40;97286.50;;;1.27;94.15
85524;BME280;75932;48.616;9.270;2024-03-02T03:30:07;97288.44;;;1.26;93.91
85524;BME280;75932;48.616;9.270;2024-03-02T03:32:32;97304.41;;;1.24;94.41
85524;BME280;75932;48.616;9.270;2024-03-02T03:34:57;97286.13;;;1.07;94.17
85524;BME280;75932;48.616;9.270;2024-03-02T03:37:23;97286.94;;;0.99;94.88
85524;BME280;75932;48.616;9.270;2024-03-02T03:39:49;97260.63;;;0.68;94.88
85524;BME280;75932;48.616;9.270;2024-03-02T03:42:14;97295.69;;;0.92;95.15
85524;BME280;75932;48.616;9.270;2024-03-02T03:44:39;97294.41;;;0.90;94.69
85524;BME280;75932;48.616;9.270;2024-03-02T03:47:06;97294.72;;;0.88;94.05
85524;BME280;75932;48.616;9.270;2024-03-02T03:49:34;97301.97;;;0.84;94.70
85524;BME280;75932;48.616;9.270;2024-03-02T03:51:59;97275.78;;;0.57;94.13
85524;BME280;75932;48.616;9.270;2024-03-02T03:54:25;97300.75;;;0.64;94.85
85524;BME280;75932;48.616;9.270;2024-03-02T03:56:50;97297.53;;;0.62;95.51
85524;BME280;75932;48.616;9.270;2024-03-02T03:59:16;97296.22;;;0.59;95.34
85524;BME280;75932;48.616;9.270;2024-03-02T04:01:41;97288.97;;;0.64;95.60
85524;BME280;75932;48.616;9.270;2024-03-02T04:04:06;97283.53;;;0.55;95.58
85524;BME280;75932;48.616;9.270;2024-03-02T04:06:32;97296.25;;;0.51;95.87
85524;BME280;75932;48.616;9.270;2024-03-02T04:08:57;97292.41;;;0.52;95.66
85524;BME280;75932;48.616;9.270;2024-03-02T04:11:22;97301.59;;;0.47;94.97
85524;BME280;75932;48.616;9.270;2024-03-02T04:13:48;97301.59;;;0.47;94.92
85524;BME280;75932;48.616;9.270;2024-03-02T04:16:13;97299.97;;;0.37;95.02
85524;BME280;75932;48.616;9.270;2024-03-02T04:18:38;97301.25;;;0.40;95.00
85524;BME280;75932;48.616;9.270;2024-03-02T04:21:04;97271.88;;;0.11;94.85
85524;BME280;75932;48.616;9.270;2024-03-02T04:23:32;97298.06;;;0.20;95.38
85524;BME280;75932;48.616;9.270;2024-03-02T04:25:57;97297.44;;;0.24;95.38
85524;BME280;75932;48.616;9.270;2024-03-02T04:28:23;97300.00;;;0.29;95.16
85524;BME280;75932;48.616;9.270;2024-03-02T04:30:48;97303.22;;;0.22;95.22
85524;BME280;75932;48.616;9.270;2024-03-02T04:33:13;97241.94;;;-0.21;95.76
85524;BME280;75932;48.616;9.270;2024-03-02T04:35:38;97304.19;;;0.17;96.05
85524;BME280;75932;48.616;9.270;2024-03-02T04:38:04;97303.84;;;0.19;95.87
85524;BME280;75932;48.616;9.270;2024-03-02T04:40:29;97301.47;;;0.17;95.84
85524;BME280;75932;48.616;9.270;2024-03-02T04:42:54;97290.53;;;0.09;95.05
85524;BME280;75932;48.616;9.270;2024-03-02T04:45:20;97297.09;;;0.08;94.72
85524;BME280;75932;48.616;9.270;2024-03-02T04:47:45;97309.97;;;0.07;95.37
85524;BME280;75932;48.616;9.270;2024-03-02T04:50:10;97307.91;;;0.13;95.59
85524;BME280;75932;48.616;9.270;2024-03-02T04:52:36;97300.00;;;0.11;95.19
85524;BME280;75932;48.616;9.270;2024-03-02T04:55:02;97302.25;;;0.09;95.50
85524;BME280;75932;48.616;9.270;2024-03-02T04:57:46;97209.94;;;-0.55;95.83
85524;BME280;75932;48.616;9.270;2024-03-02T05:00:15;97314.81;;;0.10;95.27
85524;BME280;75932;48.616;9.270;2024-03-02T05:02:40;97311.09;;;0.06;94.89
85524;BME280;75932;48.616;9.270;2024-03-02T05:05:06;97307.41;;;0.02;95.52
85524;BME280;75932;48.616;9.270;2024-03-02T05:07:31;97311.94;;;-0.02;95.40
85524;BME280;75932;48.616;9.270;2024-03-02T05:09:56;97302.56;;;-0.10;95.08
85524;BME280;75932;48.616;9.270;2024-03-02T05:12:22;97310.13;;;-0.15;94.90
85524;BME280;75932;48.616;9.270;2024-03-02T05:14:50;97285.38;;;-0.28;94.72
85524;BME280;75932;48.616;9.270;2024-03-02T05:17:15;97303.69;;;-0.11;94.55
85524;BME280;75932;48.616;9.270;2024-03-02T05:19:40;97320.09;;;-0.19;94.22
85524;BME280;75932;48.616;9.270;2024-03-02T05:22:05;97308.66;;;-0.22;94.40
85524;BME280;75932;48.616;9.270;2024-03-02T05:24:31;97282.44;;;-0.49;94.53
85524;BME280;75932;48.616;9.270;2024-03-02T05:26:56;97312.66;;;-0.36;94.55
85524;BME280;75932;48.616;9.270;2024-03-02T05:29:21;97318.63;;;-0.34;95.59
85524;BME280;75932;48.616;9.270;2024-03-02T05:31:48;97315.25;;;-0.40;95.54
85524;BME280;75932;48.616;9.270;2024-03-02T05:34:13;97307.53;;;-0.38;95.81
85524;BME280;75932;48.616;9.270;2024-03-02T05:36:38;97318.97;;;-0.36;95.19
85524;BME280;75932;48.616;9.270;2024-03-02T05:39:04;97311.88;;;-0.37;96.01
85524;BME280;75932;48.616;9.270;2024-03-02T05:41:31;97313.16;;;-0.34;96.74
85524;BME280;75932;48.616;9.270;2024-03-02T05:43:57;97310.59;;;-0.39;96.80
85524;BME280;75932;48.616;9.270;2024-03-02T05:46:22;97316.38;;;-0.32;96.32
85524;BME280;75932;48.616;9.270;2024-03-02T05:48:47;97289.50;;;-0.48;95.77
85524;BME280;75932;48.616;9.270;2024-03-02T05:51:13;97316.22;;;-0.36;95.27
85524;BME280;75932;48.616;9.270;2024-03-02T05:53:38;97317.03;;;-0.35;95.67
85524;BME280;75932;48.616;9.270;2024-03-02T05:56:04;97292.72;;;-0.54;96.10
85524;BME280;75932;48.616;9.270;2024-03-02T05:58:30;97285.97;;;-0.48;95.67
85524;BME280;75932;48.616;9.270;2024-03-02T06:01:14;97299.31;;;-0.47;95.41
85524;BME280;75932;48.616;9.270;2024-03-02T06:03:39;97317.63;;;-0.38;95.90
85524;BME280;75932;48.616;9.270;2024-03-02T06:06:05;97318.63;;;-0.34;95.58
85524;BME280;75932;48.616;9.270;2024-03-02T06:08:30;97335.00;;;-0.43;94.64
85524;BME280;75932;48.616;9.270;2024-03-02T06:10:56;97325.97;;;-0.52;94.82
85524;BME280;75932;48.616;9.270;2024-03-02T06:13:21;97327.28;;;-0.50;94.42
85524;BME280;75932;48.616;9.270;2024-03-02T06:15:46;97327.91;;;-0.53;94.73
85524;BME280;75932;48.616;9.270;2024-03-02T06:18:12;97320.69;;;-0.49;95.48
85524;BME280;75932;48.616;9.270;2024-03-02T06:20:37;97323.56;;;-0.45;96.03
85524;BME280;75932;48.616;9.270;2024-03-02T06:23:03;97342.91;;;-0.33;95.18
85524;BME280;75932;48.616;9.270;2024-03-02T06:25:29;97334.41;;;-0.31;94.49
85524;BME280;75932;48.616;9.270;2024-03-02T06:27:54;97334.72;;;-0.24;94.54
85524;BME280;75932;48.616;9.270;2024-03-02T06:30:19;97326.38;;;-0.28;95.71
85524;BME280;75932;48.616;9.270;2024-03-02T06:32:45;97335.88;;;-0.16;95.42
85524;BME280;75932;48.616;9.270;2024-03-02T06:35:10;97339.22;;;-0.11;94.82
85524;BME280;75932;48.616;9.270;2024-03-02T06:37:38;97293.03;;;-0.38;94.58
85524;BME280;75932;48.616;9.270;2024-03-02T06:40:06;97340.38;;;-0.03;94.41
85524;BME280;75932;48.616;9.270;2024-03-02T06:42:33;97339.25;;;-0.02;94.86
85524;BME280;75932;48.616;9.270;2024-03-02T06:45:00;97360.66;;;0.13;94.69
85524;BME280;75932;48.616;9.270;2024-03-02T06:47:26;97351.50;;;0.09;94.72
85524;BME280;75932;48.616;9.270;2024-03-02T06:49:53;97356.16;;;0.17;94.03
85524;BME280;75932;48.616;9.270;2024-03-02T06:52:19;97363.22;;;0.27;93.98
85524;BME280;75932;48.616;9.270;2024-03-02T06:54:45;97351.66;;;0.22;93.43
85524;BME280;75932;48.616;9.270;2024-03-02T06:57:10;97361.63;;;0.26;93.41
85524;BME280;75932;48.616;9.270;2024-03-02T06:59:36;97366.31;;;0.34;93.43
85524;BME280;75932;48.616;9.270;2024-03-02T07:02:01;97350.66;;;0.52;93.56
85524;BME280;75932;48.616;9.270;2024-03-02T07:04:27;97359.81;;;0.82;92.72
85524;BME280;75932;48.616;9.270;2024-03-02T07:06:52;97302.66;;;0.64;92.01
85524;BME280;75932;48.616;9.270;2024-03-02T07:09:17;97362.19;;;1.40;90.73
85524;BME280;75932;48.616;9.270;2024-03-02T07:11:43;97363.84;;;1.62;90.00
85524;BME280;75932;48.616;9.270;2024-03-02T07:14:08;97354.88;;;1.82;89.16
85524;BME280;75932;48.616;9.270;2024-03-02T07:16:33;97357.53;;;2.21;88.15
85524;BME280;75932;48.616;9.270;2024-03-02T07:18:59;97324.22;;;2.64;85.90
85524;BME280;75932;48.616;9.270;2024-03-02T07:21:27;97353.03;;;3.74;80.86
85524;BME280;75932;48.616;9.270;2024-03-02T07:23:52;97349.38;;;4.35;78.21
85524;BME280;75932;48.616;9.270;2024-03-02T07:26:18;97363.53;;;4.90;75.80
85524;BME280;75932;48.616;9.270;2024-03-02T07:28:45;97364.81;;;6.04;71.45
85524;BME280;75932;48.616;9.270;2024-03-02T07:31:10;97364.16;;;6.81;66.94
85524;BME280;75932;48.616;9.270;2024-03-02T07:33:36;97361.41;;;8.20;62.62
85524;BME280;75932;48.616;9.270;2024-03-02T07:36:01;97359.44;;;8.77;59.92
85524;BME280;75932;48.616;9.270;2024-03-02T07:38:28;97358.25;;;7.94;61.90
85524;BME280;75932;48.616;9.270;2024-03-02T07:40:54;97360.38;;;7.12;65.13
85524;BME280;75932;48.616;9.270;2024-03-02T07:43:20;97362.59;;;6.45;69.30
85524;BME280;75932;48.616;9.270;2024-03-02T07:45:46;97322.22;;;5.06;72.91
85524;BME280;75932;48.616;9.270;2024-03-02T07:48:11;97363.94;;;4.76;76.99
85524;BME280;75932;48.616;9.270;2024-03-02T07:50:37;97357.41;;;4.97;76.02
85524;BME280;75932;48.616;9.270;2024-03-02T07:53:04;97362.25;;;4.72;76.62
85524;BME280;75932;48.616;9.270;2024-03-02T07:55:30;97363.13;;;4.35;79.79
85524;BME280;75932;48.616;9.270;2024-03-02T07:57:58;97348.91;;;4.33;80.10
85524;BME280;75932;48.616;9.270;2024-03-02T08:00:24;97358.31;;;4.44;78.96
85524;BME280;75932;48.616;9.270;2024-03-02T08:02:51;97359.44;;;4.43;79.50
85524;BME280;75932;48.616;9.270;2024-03-02T08:05:17;97356.69;;;4.43;79.33
85524;BME280;75932;48.616;9.270;2024-03-02T08:07:45;97355.16;;;4.58;78.68
85524;BME280;75932;48.616;9.270;2024-03-02T08:10:10;97337.31;;;4.40;79.62
85524;BME280;75932;48.616;9.270;2024-03-02T08:12:36;97349.03;;;4.37;79.68
85524;BME280;75932;48.616;9.270;2024-03-02T08:15:01;97349.38;;;4.35;80.44
85524;BME280;75932;48.616;9.270;2024-03-02T08:17:26;97334.94;;;4.26;80.58
85524;BME280;75932;48.616;9.270;2024-03-02T08:19:52;97347.66;;;4.30;81.26
85524;BME280;75932;48.616;9.270;2024-03-02T08:22:18;97338.53;;;4.99;78.99
85524;BME280;75932;48.616;9.270;2024-03-02T08:24:43;97347.59;;;5.43;77.99
85524;BME280;75932;48.616;9.270;2024-03-02T08:27:09;97334.41;;;7.17;70.87
85524;BME280;75932;48.616;9.270;2024-03-02T08:29:34;97346.63;;;8.38;66.70
85524;BME280;75932;48.616;9.270;2024-03-02T08:32:00;97318.31;;;9.24;63.13
85524;BME280;75932;48.616;9.270;2024-03-02T08:34:25;97336.16;;;8.55;65.11
85524;BME280;75932;48.616;9.270;2024-03-02T08:36:51;97334.81;;;7.88;69.17
85524;BME280;75932;48.616;9.270;2024-03-02T08:39:16;97330.59;;;8.25;67.48
85524;BME280;75932;48.616;9.270;2024-03-02T08:41:44;97321.91;;;9.24;64.27
85524;BME280;75932;48.616;9.270;2024-03-02T08:44:09;97323.38;;;10.04;61.10
85524;BME280;75932;48.616;9.270;2024-03-02T08:46:35;97283.66;;;10.80;59.02
85524;BME280;75932;48.616;9.270;2024-03-02T08:49:02;97321.53;;;11.17;58.40
85524;BME280;75932;48.616;9.270;2024-03-02T08:51:27;97325.03;;;10.85;59.49
85524;BME280;75932;48.616;9.270;2024-03-02T08:53:53;97323.88;;;10.97;59.65
85524;BME280;75932;48.616;9.270;2024-03-02T08:56:18;97281.56;;;10.55;60.39
85524;BME280;75932;48.616;9.270;2024-03-02T08:58:45;97265.84;;;10.11;61.53
85524;BME280;75932;48.616;9.270;2024-03-02T09:01:11;97297.91;;;10.64;60.85
85524;BME280;75932;48.616;9.270;2024-03-02T09:03:36;97320.78;;;11.34;59.52
85524;BME280;75932;48.616;9.270;2024-03-02T09:06:05;97320.75;;;11.23;60.07
85524;BME280;75932;48.616;9.270;2024-03-02T09:08:30;97257.50;;;11.17;60.02
85524;BME280;75932;48.616;9.270;2024-03-02T09:10:56;97319.22;;;11.62;59.59
85524;BME280;75932;48.616;9.270;2024-03-02T09:13:21;97323.53;;;11.20;58.89
85524;BME280;75932;48.616;9.270;2024-03-02T09:15:47;97328.09;;;10.62;62.26
85524;BME280;75932;48.616;9.270;2024-03-02T09:18:13;97308.53;;;10.40;63.89
85524;BME280;75932;48.616;9.270;2024-03-02T09:20:38;97327.03;;;10.88;63.19
85524;BME280;75932;48.616;9.270;2024-03-02T09:23:04;97322.75;;;11.30;60.83
85524;BME280;75932;48.616;9.270;2024-03-02T09:25:29;97318.44;;;11.54;60.66
85524;BME280;75932;48.616;9.270;2024-03-02T09:27:54;97321.22;;;11.69;59.80
85524;BME280;75932;48.616;9.270;2024-03-02T09:30:20;97312.47;;;11.74;59.37
85524;BME280;75932;48.616;9.270;2024-03-02T09:32:45;97310.47;;;11.71;59.32
85524;BME280;75932;48.616;9.270;2024-03-02T09:35:10;97310.06;;;12.01;58.76
85524;BME280;75932;48.616;9.270;2024-03-02T09:37:37;97304.88;;;11.71;59.98
85524;BME280;75932;48.616;9.270;2024-03-02T09:40:03;97305.69;;;11.60;58.80
85524;BME280;75932;48.616;9.270;2024-03-02T09:42:29;97306.84;;;11.34;60.40
85524;BME280;75932;48.616;9.270;2024-03-02T09:44:54;97307.16;;;11.00;61.09
85524;BME280;75932;48.616;9.270;2024-03-02T09:47:20;97304.72;;;10.81;60.86
85524;BME280;75932;48.616;9.270;2024-03-02T09:49:45;97301.63;;;10.97;61.37
85524;BME280;75932;48.616;9.270;2024-03-02T09:52:13;97284.97;;;11.18;62.33
85524;BME280;75932;48.616;9.270;2024-03-02T09:54:39;97286.56;;;11.30;58.14
85524;BME280;75932;48.616;9.270;2024-03-02T09:57:05;97277.78;;;11.17;58.66
85524;BME280;75932;48.616;9.270;2024-03-02T09:59:30;97265.84;;;11.10;59.94
85524;BME280;75932;48.616;9.270;2024-03-02T10:01:59;97267.75;;;10.77;61.58
85524;BME280;75932;48.616;9.270;2024-03-02T10:04:26;97276.97;;;10.99;62.18
85524;BME280;75932;48.616;9.270;2024-03-02T10:06:51;97275.38;;;11.05;61.92
85524;BME280;75932;48.616;9.270;2024-03-02T10:09:27;97271.38;;;11.02;60.81
85524;BME280;75932;48.616;9.270;2024-03-02T10:12:03;97244.69;;;10.76;60.55
85524;BME280;75932;48.616;9.270;2024-03-02T10:14:29;97255.09;;;11.04;61.07
85524;BME280;75932;48.616;9.270;2024-03-02T10:17:02;97253.56;;;11.39;61.48
85524;BME280;75932;48.616;9.270;2024-03-02T10:19:27;97255.13;;;11.51;59.91
85524;BME280;75932;48.616;9.270;2024-03-02T10:21:57;97232.47;;;11.42;58.09
85524;BME280;75932;48.616;9.270;2024-03-02T10:24:23;97259.50;;;11.67;59.02
85524;BME280;75932;48.616;9.270;2024-03-02T10:26:49;97200.22;;;11.16;58.47
85524;BME280;75932;48.616;9.270;2024-03-02T10:29:15;97259.13;;;11.54;61.15
85524;BME280;75932;48.616;9.270;2024-03-02T10:31:45;97227.69;;;11.50;59.56
85524;BME280;75932;48.616;9.270;2024-03-02T10:34:12;97257.13;;;11.61;59.07
85524;BME280;75932;48.616;9.270;2024-03-02T10:36:40;97253.16;;;11.59;59.52
85524;BME280;75932;48.616;9.270;2024-03-02T10:39:07;97253.94;;;11.74;59.25
85524;BME280;75932;48.616;9.270;2024-03-02T10:41:37;97249.16;;;11.63;58.70
85524;BME280;75932;48.616;9.270;2024-03-02T10:44:04;97241.19;;;11.73;59.97
85524;BME280;75932;48.616;9.270;2024-03-02T10:46:32;97236.03;;;11.78;59.20
85524;BME280;75932;48.616;9.270;2024-03-02T10:49:01;97234.44;;;11.84;59.43
85524;BME280;75932;48.616;9.270;2024-03-02T10:51:31;97232.00;;;12.04;58.54
85524;BME280;75932;48.616;9.270;2024-03-02T10:53:58;97230.84;;;12.05;58.67
85524;BME280;75932;48.616;9.270;2024-03-02T10:56:31;97235.97;;;12.14;58.16
85524;BME280;75932;48.616;9.270;2024-03-02T10:59:09;97192.97;;;12.01;56.36
85524;BME280;75932;48.616;9.270;2024-03-02T11:01:42;97217.63;;;12.24;57.88
85524;BME280;75932;48.616;9.270;2024-03-02T11:04:09;97214.72;;;12.49;59.68
85524;BME280;75932;48.616;9.270;2024-03-02T11:06:35;97211.44;;;12.65;55.52
85524;BME280;75932;48.616;9.270;2024-03-02T11:09:06;97206.19;;;12.81;55.12
85524;BME280;75932;48.616;9.270;2024-03-02T11:11:36;97199.31;;;12.97;54.02
85524;BME280;75932;48.616;9.270;2024-03-02T11:14:04;97198.47;;;13.03;55.31
85524;BME280;75932;48.616;9.270;2024-03-02T11:16:37;97175.72;;;13.01;54.38
85524;BME280;75932;48.616;9.270;2024-03-02T11:19:06;97191.09;;;13.31;54.47
85524;BME280;75932;48.616;9.270;2024-03-02T11:21:35;97186.19;;;13.46;53.37
85524;BME280;75932;48.616;9.270;2024-03-02T11:24:28;97182.00;;;13.68;51.63
85524;BME280;75932;48.616;9.270;2024-03-02T11:27:00;97185.56;;;13.73;51.71
85524;BME280;75932;48.616;9.270;2024-03-02T11:29:44;97176.56;;;13.92;51.66
85524;BME280;75932;48.616;9.270;2024-03-02T11:32:17;97173.31;;;13.97;50.10
85524;BME280;75932;48.616;9.270;2024-03-02T11:34:45;97144.16;;;13.95;50.50
85524;BME280;75932;48.616;9.270;2024-03-02T11:37:15;97162.09;;;14.32;51.51
85524;BME280;75932;48.616;9.270;2024-03-02T11:39:43;97153.25;;;14.37;49.07
85524;BME280;75932;48.616;9.270;2024-03-02T11:42:08;97149.16;;;14.45;50.38
85524;BME280;75932;48.616;9.270;2024-03-02T11:44:35;97133.91;;;14.49;50.55
85524;BME280;75932;48.616;9.270;2024-03-02T11:47:07;97137.16;;;14.75;51.09
85524;BME280;75932;48.616;9.270;2024-03-02T11:52:06;97139.53;;;15.04;48.61
85524;BME280;75932;48.616;9.270;2024-03-02T11:54:32;97124.50;;;14.94;47.90
85524;BME280;75932;48.616;9.270;2024-03-02T11:57:02;97114.13;;;14.91;49.32
85524;BME280;75932;48.616;9.270;2024-03-02T11:59:29;97113.53;;;15.03;47.71
85524;BME280;75932;48.616;9.270;2024-03-02T12:01:54;97111.47;;;15.07;48.91
85524;BME280;75932;48.616;9.270;2024-03-02T12:04:21;97096.06;;;14.96;47.37
85524;BME280;75932;48.616;9.270;2024-03-02T12:06:54;97107.19;;;14.99;47.98
85524;BME280;75932;48.616;9.270;2024-03-02T12:09:20;97103.47;;;15.06;47.88
85524;BME280;75932;48.616;9.270;2024-03-02T12:11:48;97096.78;;;15.00;47.97
85524;BME280;75932;48.616;9.270;2024-03-02T12:14:25;97086.84;;;14.95;46.70
85524;BME280;75932;48.616;9.270;2024-03-02T12:16:54;97095.06;;;15.06;45.98
85524;BME280;75932;48.616;9.270;2024-03-02T12:19:20;97095.56;;;15.01;44.44
85524;BME280;75932;48.616;9.270;2024-03-02T12:21:46;97068.34;;;15.01;45.44
85524;BME280;75932;48.616;9.270;2024-03-02T12:24:11;97083.38;;;15.35;43.57
85524;BME280;75932;48.616;9.270;2024-03-02T12:26:36;97074.59;;;15.56;43.33
85524;BME280;75932;48.616;9.270;2024-03-02T12:29:02;97066.69;;;15.71;44.13
85524;BME280;75932;48.616;9.270;2024-03-02T12:31:27;97074.19;;;15.98;42.78
85524;BME280;75932;48.616;9.270;2024-03-02T12:33:54;97075.31;;;16.20;41.70
85524;BME280;75932;48.616;9.270;2024-03-02T12:36:19;97074.09;;;16.21;41.50
85524;BME280;75932;48.616;9.270;2024-03-02T12:38:44;97070.22;;;16.15;41.64
85524;BME280;75932;48.616;9.270;2024-03-02T12:41:14;97058.78;;;16.26;39.55
85524;BME280;75932;48.616;9.270;2024-03-02T12:43:40;97062.38;;;16.43;39.51
85524;BME280;75932;48.616;9.270;2024-03-02T12:46:05;97055.31;;;16.54;39.72
85524;BME280;75932;48.616;9.270;2024-03-02T12:48:31;97062.78;;;16.61;39.06
85524;BME280;75932;48.616;9.270;2024-03-02T12:50:56;97049.16;;;16.43;37.92
85524;BME280;75932;48.616;9.270;2024-03-02T12:53:22;97041.81;;;16.13;37.63
85524;BME280;75932;48.616;9.270;2024-03-02T12:55:48;97050.69;;;16.28;37.45
85524;BME280;75932;48.616;9.270;2024-03-02T12:58:19;97035.75;;;16.15;38.00
85524;BME280;75932;48.616;9.270;2024-03-02T13:00:46;97047.31;;;16.53;38.78
85524;BME280;75932;48.616;9.270;2024-03-02T13:03:12;97045.06;;;16.64;36.14